sensor_id;sensor_type;location;lat;lon;timestamp;P1;durP1;ratioP1;P2;durP2;ratioP2
7150;SDS011;3617;48.836;9.172;2022-07-03T00:02:11;4.30;;;3.77;;
7150;SDS011;3617;48.836;9.172;2022-07-03T00:04:38;4.50;;;3.87;;
7150;SDS011;3617;48.836;9.172;2022-07-03T00:07:04;4.03;;;3.60;;
7150;SDS011;3617;48.836;9.172;2022-07-03T00:09:30;5.43;;;3.93;;
7150;SDS011;3617;48.836;9.172;2022-07-03T00:11:56;6.70;;;4.30;;
7150;SDS011;3617;48.836;9.172;2022-07-03T00:14:23;4.47;;;3.83;;
7150;SDS011;3617;48.836;9.172;2022-07-03T00:16:49;4.60;;;3.60;;
7150;SDS011;3617;48.836;9.172;2022-07-03T00:19:15;5.87;;;3.73;;
7150;SDS011;3617;48.836;9.172;2022-07-03T00:21:44;4.83;;;3.60;;
7150;SDS011;3617;48.836;9.172;2022-07-03T00:24:16;4.60;;;3.13;;
7150;SDS011;3617;48.836;9.172;2022-07-03T00:26:45;5.43;;;3.40;;
7150;SDS011;3617;48.836;9.172;2022-07-03T00:29:13;3.77;;;3.13;;
7150;SDS011;3617;48.836;9.172;2022-07-03T00:31:41;7.90;;;3.83;;
7150;SDS011;3617;48.836;9.172;2022-07-03T00:34:08;4.33;;;3.10;;
7150;SDS011;3617;48.836;9.172;2022-07-03T00:36:36;5.37;;;3.27;;
7150;SDS011;3617;48.836;9.172;2022-07-03T00:39:02;3.83;;;3.17;;
7150;SDS011;3617;48.836;9.172;2022-07-03T00:41:33;4.23;;;3.23;;
7150;SDS011;3617;48.836;9.172;2022-07-03T00:43:59;3.93;;;3.53;;
7150;SDS011;3617;48.836;9.172;2022-07-03T00:46:26;5.17;;;3.53;;
7150;SDS011;3617;48.836;9.172;2022-07-03T00:48:53;4.73;;;3.20;;
7150;SDS011;3617;48.836;9.172;2022-07-03T00:51:23;3.67;;;3.17;;
7150;SDS011;3617;48.836;9.172;2022-07-03T00:53:50;3.97;;;3.53;;
7150;SDS011;3617;48.836;9.172;2022-07-03T00:56:18;4.00;;;3.17;;
7150;SDS011;3617;48.836;9.172;2022-07-03T00:58:44;4.60;;;3.10;;
7150;SDS011;3617;48.836;9.172;2022-07-03T01:01:11;4.97;;;3.33;;
7150;SDS011;3617;48.836;9.172;2022-07-03T01:03:39;4.10;;;3.50;;
7150;SDS011;3617;48.836;9.172;2022-07-03T01:06:13;5.83;;;3.47;;
7150;SDS011;3617;48.836;9.172;2022-07-03T01:08:48;5.90;;;3.83;;
7150;SDS011;3617;48.836;9.172;2022-07-03T01:11:21;4.40;;;3.30;;
7150;SDS011;3617;48.836;9.172;2022-07-03T01:13:55;3.60;;;2.93;;
7150;SDS011;3617;48.836;9.172;2022-07-03T01:16:27;7.03;;;3.40;;
7150;SDS011;3617;48.836;9.172;2022-07-03T01:26:54;7.13;;;3.70;;
7150;SDS011;3617;48.836;9.172;2022-07-03T01:29:21;4.17;;;3.57;;
7150;SDS011;3617;48.836;9.172;2022-07-03T01:31:48;5.07;;;3.80;;
7150;SDS011;3617;48.836;9.172;2022-07-03T01:34:16;4.80;;;3.63;;
7150;SDS011;3617;48.836;9.172;2022-07-03T01:36:44;6.80;;;3.90;;
7150;SDS011;3617;48.836;9.172;2022-07-03T01:39:12;4.87;;;3.80;;
7150;SDS011;3617;48.836;9.172;2022-07-03T01:41:41;4.67;;;3.83;;
7150;SDS011;3617;48.836;9.172;2022-07-03T01:44:07;5.87;;;3.60;;
7150;SDS011;3617;48.836;9.172;2022-07-03T01:46:37;4.57;;;3.80;;
7150;SDS011;3617;48.836;9.172;2022-07-03T01:49:03;6.17;;;3.90;;
7150;SDS011;3617;48.836;9.172;2022-07-03T01:51:32;6.70;;;3.83;;
7150;SDS011;3617;48.836;9.172;2022-07-03T01:54:00;5.07;;;3.30;;
7150;SDS011;3617;48.836;9.172;2022-07-03T01:56:27;3.97;;;3.57;;
7150;SDS011;3617;48.836;9.172;2022-07-03T01:58:54;4.10;;;3.70;;
7150;SDS011;3617;48.836;9.172;2022-07-03T02:01:30;4.10;;;3.70;;
7150;SDS011;3617;48.836;9.172;2022-07-03T02:04:12;5.13;;;4.10;;
7150;SDS011;3617;48.836;9.172;2022-07-03T02:06:44;4.73;;;3.73;;
7150;SDS011;3617;48.836;9.172;2022-07-03T02:09:14;4.37;;;3.90;;
7150;SDS011;3617;48.836;9.172;2022-07-03T02:11:43;4.30;;;3.63;;
7150;SDS011;3617;48.836;9.172;2022-07-03T02:14:14;5.03;;;3.70;;
7150;SDS011;3617;48.836;9.172;2022-07-03T02:16:54;6.77;;;3.80;;
7150;SDS011;3617;48.836;9.172;2022-07-03T02:21:59;5.77;;;3.30;;
7150;SDS011;3617;48.836;9.172;2022-07-03T02:24:26;5.10;;;3.70;;
7150;SDS011;3617;48.836;9.172;2022-07-03T02:27:04;5.10;;;3.90;;
7150;SDS011;3617;48.836;9.172;2022-07-03T02:29:36;4.13;;;3.70;;
7150;SDS011;3617;48.836;9.172;2022-07-03T02:32:03;5.23;;;3.33;;
7150;SDS011;3617;48.836;9.172;2022-07-03T02:34:30;5.47;;;3.73;;
7150;SDS011;3617;48.836;9.172;2022-07-03T02:36:57;5.90;;;3.53;;
7150;SDS011;3617;48.836;9.172;2022-07-03T02:39:27;5.63;;;3.47;;
7150;SDS011;3617;48.836;9.172;2022-07-03T02:41:59;5.33;;;3.83;;
7150;SDS011;3617;48.836;9.172;2022-07-03T02:44:45;3.83;;;3.30;;
7150;SDS011;3617;48.836;9.172;2022-07-03T02:57:40;7.30;;;3.87;;
7150;SDS011;3617;48.836;9.172;2022-07-03T03:00:07;3.80;;;3.40;;
7150;SDS011;3617;48.836;9.172;2022-07-03T03:02:54;3.90;;;3.40;;
7150;SDS011;3617;48.836;9.172;2022-07-03T03:10:50;4.40;;;3.67;;
7150;SDS011;3617;48.836;9.172;2022-07-03T03:13:16;3.97;;;3.57;;
7150;SDS011;3617;48.836;9.172;2022-07-03T03:15:47;4.00;;;3.43;;
7150;SDS011;3617;48.836;9.172;2022-07-03T03:18:20;10.50;;;3.50;;
7150;SDS011;3617;48.836;9.172;2022-07-03T03:20:47;4.90;;;3.83;;
7150;SDS011;3617;48.836;9.172;2022-07-03T03:23:19;6.77;;;3.97;;
7150;SDS011;3617;48.836;9.172;2022-07-03T03:25:47;5.50;;;3.73;;
7150;SDS011;3617;48.836;9.172;2022-07-03T03:28:13;5.47;;;3.87;;
7150;SDS011;3617;48.836;9.172;2022-07-03T03:30:39;3.83;;;3.37;;
7150;SDS011;3617;48.836;9.172;2022-07-03T03:33:06;5.30;;;3.73;;
7150;SDS011;3617;48.836;9.172;2022-07-03T03:35:34;5.13;;;3.70;;
7150;SDS011;3617;48.836;9.172;2022-07-03T03:38:00;4.23;;;3.33;;
7150;SDS011;3617;48.836;9.172;2022-07-03T03:40:26;4.10;;;3.30;;
7150;SDS011;3617;48.836;9.172;2022-07-03T03:42:52;6.30;;;3.50;;
7150;SDS011;3617;48.836;9.172;2022-07-03T03:45:18;5.50;;;3.67;;
7150;SDS011;3617;48.836;9.172;2022-07-03T03:47:44;3.47;;;3.17;;
7150;SDS011;3617;48.836;9.172;2022-07-03T03:50:10;4.50;;;3.40;;
7150;SDS011;3617;48.836;9.172;2022-07-03T03:52:36;6.40;;;3.53;;
7150;SDS011;3617;48.836;9.172;2022-07-03T03:55:02;4.53;;;3.33;;
7150;SDS011;3617;48.836;9.172;2022-07-03T03:57:29;4.13;;;3.43;;
7150;SDS011;3617;48.836;9.172;2022-07-03T03:59:55;5.90;;;3.67;;
7150;SDS011;3617;48.836;9.172;2022-07-03T04:02:21;7.37;;;3.40;;
7150;SDS011;3617;48.836;9.172;2022-07-03T04:04:47;6.27;;;3.67;;
7150;SDS011;3617;48.836;9.172;2022-07-03T04:07:13;4.00;;;3.00;;
7150;SDS011;3617;48.836;9.172;2022-07-03T04:09:39;4.17;;;3.37;;
7150;SDS011;3617;48.836;9.172;2022-07-03T04:12:05;4.30;;;3.33;;
7150;SDS011;3617;48.836;9.172;2022-07-03T04:14:32;4.23;;;3.13;;
7150;SDS011;3617;48.836;9.172;2022-07-03T04:16:58;3.70;;;3.10;;
7150;SDS011;3617;48.836;9.172;2022-07-03T04:19:24;4.27;;;3.10;;
7150;SDS011;3617;48.836;9.172;2022-07-03T04:21:50;4.77;;;3.63;;
7150;SDS011;3617;48.836;9.172;2022-07-03T04:24:17;4.10;;;3.03;;
7150;SDS011;3617;48.836;9.172;2022-07-03T04:26:43;5.70;;;3.17;;
7150;SDS011;3617;48.836;9.172;2022-07-03T04:29:09;5.93;;;3.00;;
7150;SDS011;3617;48.836;9.172;2022-07-03T04:31:35;3.93;;;2.70;;
7150;SDS011;3617;48.836;9.172;2022-07-03T04:34:01;3.00;;;2.70;;
7150;SDS011;3617;48.836;9.172;2022-07-03T04:36:27;3.97;;;2.70;;
7150;SDS011;3617;48.836;9.172;2022-07-03T04:38:53;3.63;;;2.77;;
7150;SDS011;3617;48.836;9.172;2022-07-03T04:41:19;3.92;;;2.70;;
7150;SDS011;3617;48.836;9.172;2022-07-03T04:43:45;2.80;;;2.42;;
7150;SDS011;3617;48.836;9.172;2022-07-03T04:46:11;2.85;;;2.33;;
7150;SDS011;3617;48.836;9.172;2022-07-03T04:48:37;3.33;;;2.40;;
7150;SDS011;3617;48.836;9.172;2022-07-03T04:51:03;2.70;;;2.50;;
7150;SDS011;3617;48.836;9.172;2022-07-03T04:53:29;6.72;;;2.40;;
7150;SDS011;3617;48.836;9.172;2022-07-03T04:55:55;3.90;;;2.30;;
7150;SDS011;3617;48.836;9.172;2022-07-03T04:58:21;2.47;;;2.28;;
7150;SDS011;3617;48.836;9.172;2022-07-03T05:00:47;2.78;;;2.30;;
7150;SDS011;3617;48.836;9.172;2022-07-03T05:03:13;2.85;;;2.40;;
7150;SDS011;3617;48.836;9.172;2022-07-03T05:05:39;3.00;;;2.42;;
7150;SDS011;3617;48.836;9.172;2022-07-03T05:08:05;2.45;;;2.20;;
7150;SDS011;3617;48.836;9.172;2022-07-03T05:10:31;3.35;;;2.10;;
7150;SDS011;3617;48.836;9.172;2022-07-03T05:12:57;3.17;;;2.35;;
7150;SDS011;3617;48.836;9.172;2022-07-03T05:15:23;2.72;;;2.42;;
7150;SDS011;3617;48.836;9.172;2022-07-03T05:17:49;2.90;;;2.40;;
7150;SDS011;3617;48.836;9.172;2022-07-03T05:20:15;2.13;;;1.85;;
7150;SDS011;3617;48.836;9.172;2022-07-03T05:22:53;2.38;;;2.17;;
7150;SDS011;3617;48.836;9.172;2022-07-03T05:25:20;3.58;;;2.00;;
7150;SDS011;3617;48.836;9.172;2022-07-03T05:27:46;3.25;;;2.05;;
7150;SDS011;3617;48.836;9.172;2022-07-03T05:30:12;3.65;;;2.00;;
7150;SDS011;3617;48.836;9.172;2022-07-03T05:32:39;2.08;;;1.92;;
7150;SDS011;3617;48.836;9.172;2022-07-03T05:35:05;2.38;;;1.80;;
7150;SDS011;3617;48.836;9.172;2022-07-03T05:37:31;3.35;;;1.80;;
7150;SDS011;3617;48.836;9.172;2022-07-03T05:39:57;3.38;;;1.80;;
7150;SDS011;3617;48.836;9.172;2022-07-03T05:42:23;2.08;;;1.88;;
7150;SDS011;3617;48.836;9.172;2022-07-03T05:44:49;2.35;;;1.60;;
7150;SDS011;3617;48.836;9.172;2022-07-03T05:47:15;1.92;;;1.80;;
7150;SDS011;3617;48.836;9.172;2022-07-03T05:49:41;2.60;;;2.17;;
7150;SDS011;3617;48.836;9.172;2022-07-03T05:52:07;2.30;;;1.80;;
7150;SDS011;3617;48.836;9.172;2022-07-03T05:54:33;3.33;;;1.70;;
7150;SDS011;3617;48.836;9.172;2022-07-03T05:57:00;3.28;;;1.73;;
7150;SDS011;3617;48.836;9.172;2022-07-03T05:59:26;2.65;;;1.67;;
7150;SDS011;3617;48.836;9.172;2022-07-03T06:01:51;2.30;;;1.60;;
7150;SDS011;3617;48.836;9.172;2022-07-03T06:04:17;2.17;;;1.98;;
7150;SDS011;3617;48.836;9.172;2022-07-03T06:06:43;4.25;;;1.90;;
7150;SDS011;3617;48.836;9.172;2022-07-03T06:09:09;1.80;;;1.70;;
7150;SDS011;3617;48.836;9.172;2022-07-03T06:11:35;1.73;;;1.60;;
7150;SDS011;3617;48.836;9.172;2022-07-03T06:14:01;2.38;;;1.83;;
7150;SDS011;3617;48.836;9.172;2022-07-03T06:16:27;1.50;;;1.40;;
7150;SDS011;3617;48.836;9.172;2022-07-03T06:18:53;2.10;;;1.60;;
7150;SDS011;3617;48.836;9.172;2022-07-03T06:21:19;1.80;;;1.70;;
7150;SDS011;3617;48.836;9.172;2022-07-03T06:23:45;2.33;;;1.67;;
7150;SDS011;3617;48.836;9.172;2022-07-03T06:26:12;1.98;;;1.80;;
7150;SDS011;3617;48.836;9.172;2022-07-03T06:28:38;2.17;;;1.80;;
7150;SDS011;3617;48.836;9.172;2022-07-03T06:31:04;3.15;;;1.52;;
7150;SDS011;3617;48.836;9.172;2022-07-03T06:33:30;1.70;;;1.60;;
7150;SDS011;3617;48.836;9.172;2022-07-03T06:35:56;3.15;;;1.90;;
7150;SDS011;3617;48.836;9.172;2022-07-03T06:38:22;2.33;;;1.50;;
7150;SDS011;3617;48.836;9.172;2022-07-03T06:40:48;1.60;;;1.50;;
7150;SDS011;3617;48.836;9.172;2022-07-03T06:43:14;3.15;;;1.75;;
7150;SDS011;3617;48.836;9.172;2022-07-03T06:45:40;1.60;;;1.50;;
7150;SDS011;3617;48.836;9.172;2022-07-03T06:48:06;1.73;;;1.60;;
7150;SDS011;3617;48.836;9.172;2022-07-03T06:50:32;1.67;;;1.42;;
7150;SDS011;3617;48.836;9.172;2022-07-03T06:52:58;1.80;;;1.70;;
7150;SDS011;3617;48.836;9.172;2022-07-03T06:55:25;2.85;;;1.60;;
7150;SDS011;3617;48.836;9.172;2022-07-03T06:57:51;2.22;;;1.60;;
7150;SDS011;3617;48.836;9.172;2022-07-03T07:00:17;1.55;;;1.45;;
7150;SDS011;3617;48.836;9.172;2022-07-03T07:02:43;2.63;;;1.42;;
7150;SDS011;3617;48.836;9.172;2022-07-03T07:05:09;1.60;;;1.50;;
7150;SDS011;3617;48.836;9.172;2022-07-03T07:07:35;4.65;;;1.50;;
7150;SDS011;3617;48.836;9.172;2022-07-03T07:10:02;1.70;;;1.40;;
7150;SDS011;3617;48.836;9.172;2022-07-03T07:12:28;3.97;;;1.65;;
7150;SDS011;3617;48.836;9.172;2022-07-03T07:14:54;3.45;;;1.65;;
7150;SDS011;3617;48.836;9.172;2022-07-03T07:17:20;2.38;;;1.58;;
7150;SDS011;3617;48.836;9.172;2022-07-03T07:19:46;1.90;;;1.63;;
7150;SDS011;3617;48.836;9.172;2022-07-03T07:22:12;1.80;;;1.60;;
7150;SDS011;3617;48.836;9.172;2022-07-03T07:24:38;1.98;;;1.77;;
7150;SDS011;3617;48.836;9.172;2022-07-03T07:27:04;2.00;;;1.80;;
7150;SDS011;3617;48.836;9.172;2022-07-03T07:29:30;3.08;;;1.73;;
7150;SDS011;3617;48.836;9.172;2022-07-03T07:31:56;2.47;;;1.48;;
7150;SDS011;3617;48.836;9.172;2022-07-03T07:34:22;1.95;;;1.70;;
7150;SDS011;3617;48.836;9.172;2022-07-03T07:36:48;1.40;;;1.30;;
7150;SDS011;3617;48.836;9.172;2022-07-03T07:39:14;1.85;;;1.40;;
7150;SDS011;3617;48.836;9.172;2022-07-03T07:41:40;1.77;;;1.67;;
7150;SDS011;3617;48.836;9.172;2022-07-03T07:44:06;1.60;;;1.50;;
7150;SDS011;3617;48.836;9.172;2022-07-03T07:46:32;2.40;;;1.50;;
7150;SDS011;3617;48.836;9.172;2022-07-03T07:48:58;1.23;;;1.10;;
7150;SDS011;3617;48.836;9.172;2022-07-03T07:51:24;1.40;;;1.27;;
7150;SDS011;3617;48.836;9.172;2022-07-03T07:53:50;1.92;;;1.52;;
7150;SDS011;3617;48.836;9.172;2022-07-03T07:56:22;0.80;;;0.80;;
7150;SDS011;3617;48.836;9.172;2022-07-03T07:58:47;1.38;;;0.70;;
7150;SDS011;3617;48.836;9.172;2022-07-03T08:01:13;0.80;;;0.80;;
7150;SDS011;3617;48.836;9.172;2022-07-03T08:03:58;2.28;;;0.90;;
7150;SDS011;3617;48.836;9.172;2022-07-03T08:06:42;1.02;;;0.93;;
7150;SDS011;3617;48.836;9.172;2022-07-03T08:09:08;0.80;;;0.80;;
7150;SDS011;3617;48.836;9.172;2022-07-03T08:11:34;0.85;;;0.85;;
7150;SDS011;3617;48.836;9.172;2022-07-03T08:14:00;1.48;;;1.00;;
7150;SDS011;3617;48.836;9.172;2022-07-03T08:16:29;0.75;;;0.75;;
7150;SDS011;3617;48.836;9.172;2022-07-03T08:18:55;0.75;;;0.63;;
7150;SDS011;3617;48.836;9.172;2022-07-03T08:21:21;2.00;;;0.93;;
7150;SDS011;3617;48.836;9.172;2022-07-03T08:23:47;0.80;;;0.80;;
7150;SDS011;3617;48.836;9.172;2022-07-03T08:26:13;0.65;;;0.65;;
7150;SDS011;3617;48.836;9.172;2022-07-03T08:28:39;0.95;;;0.93;;
7150;SDS011;3617;48.836;9.172;2022-07-03T08:31:05;1.10;;;1.00;;
7150;SDS011;3617;48.836;9.172;2022-07-03T08:33:31;0.85;;;0.70;;
7150;SDS011;3617;48.836;9.172;2022-07-03T08:35:58;2.45;;;0.80;;
7150;SDS011;3617;48.836;9.172;2022-07-03T08:38:26;1.23;;;0.80;;
7150;SDS011;3617;48.836;9.172;2022-07-03T08:40:54;0.90;;;0.90;;
7150;SDS011;3617;48.836;9.172;2022-07-03T08:43:20;1.85;;;0.82;;
7150;SDS011;3617;48.836;9.172;2022-07-03T08:45:47;0.93;;;0.93;;
7150;SDS011;3617;48.836;9.172;2022-07-03T08:48:13;3.13;;;0.90;;
7150;SDS011;3617;48.836;9.172;2022-07-03T08:50:40;1.67;;;0.80;;
7150;SDS011;3617;48.836;9.172;2022-07-03T08:53:07;0.70;;;0.70;;
7150;SDS011;3617;48.836;9.172;2022-07-03T08:55:36;0.70;;;0.70;;
7150;SDS011;3617;48.836;9.172;2022-07-03T08:58:02;0.90;;;0.90;;
7150;SDS011;3617;48.836;9.172;2022-07-03T09:00:28;0.70;;;0.70;;
7150;SDS011;3617;48.836;9.172;2022-07-03T09:02:54;0.98;;;0.88;;
7150;SDS011;3617;48.836;9.172;2022-07-03T09:05:21;0.65;;;0.65;;
7150;SDS011;3617;48.836;9.172;2022-07-03T09:07:47;4.80;;;1.00;;
7150;SDS011;3617;48.836;9.172;2022-07-03T09:10:14;0.93;;;0.82;;
7150;SDS011;3617;48.836;9.172;2022-07-03T09:12:42;1.05;;;0.80;;
7150;SDS011;3617;48.836;9.172;2022-07-03T09:15:08;0.80;;;0.80;;
7150;SDS011;3617;48.836;9.172;2022-07-03T09:17:34;1.00;;;0.90;;
7150;SDS011;3617;48.836;9.172;2022-07-03T09:20:03;0.73;;;0.73;;
7150;SDS011;3617;48.836;9.172;2022-07-03T09:22:31;2.97;;;0.80;;
7150;SDS011;3617;48.836;9.172;2022-07-03T09:25:08;1.30;;;0.80;;
7150;SDS011;3617;48.836;9.172;2022-07-03T09:27:49;1.67;;;0.80;;
7150;SDS011;3617;48.836;9.172;2022-07-03T09:30:15;0.70;;;0.70;;
7150;SDS011;3617;48.836;9.172;2022-07-03T09:32:45;1.75;;;0.80;;
7150;SDS011;3617;48.836;9.172;2022-07-03T09:35:21;5.63;;;1.20;;
7150;SDS011;3617;48.836;9.172;2022-07-03T09:40:14;1.33;;;0.80;;
7150;SDS011;3617;48.836;9.172;2022-07-03T09:42:46;0.80;;;0.80;;
7150;SDS011;3617;48.836;9.172;2022-07-03T09:45:21;0.80;;;0.80;;
7150;SDS011;3617;48.836;9.172;2022-07-03T09:47:47;0.80;;;0.80;;
7150;SDS011;3617;48.836;9.172;2022-07-03T09:50:14;1.00;;;0.90;;
7150;SDS011;3617;48.836;9.172;2022-07-03T09:52:47;0.88;;;0.88;;
7150;SDS011;3617;48.836;9.172;2022-07-03T09:57:40;0.90;;;0.90;;
7150;SDS011;3617;48.836;9.172;2022-07-03T10:05:31;0.77;;;0.77;;
7150;SDS011;3617;48.836;9.172;2022-07-03T10:07:58;0.90;;;0.90;;
7150;SDS011;3617;48.836;9.172;2022-07-03T10:10:26;2.53;;;0.90;;
7150;SDS011;3617;48.836;9.172;2022-07-03T10:12:53;0.80;;;0.80;;
7150;SDS011;3617;48.836;9.172;2022-07-03T10:15:19;1.00;;;0.80;;
7150;SDS011;3617;48.836;9.172;2022-07-03T10:17:53;1.00;;;0.75;;
7150;SDS011;3617;48.836;9.172;2022-07-03T10:20:23;2.08;;;1.88;;
7150;SDS011;3617;48.836;9.172;2022-07-03T10:22:50;0.82;;;0.82;;
7150;SDS011;3617;48.836;9.172;2022-07-03T10:25:16;1.15;;;0.93;;
7150;SDS011;3617;48.836;9.172;2022-07-03T10:27:43;2.15;;;0.80;;
7150;SDS011;3617;48.836;9.172;2022-07-03T10:30:10;1.55;;;1.00;;
7150;SDS011;3617;48.836;9.172;2022-07-03T10:32:37;0.82;;;0.82;;
7150;SDS011;3617;48.836;9.172;2022-07-03T10:35:04;1.88;;;0.98;;
7150;SDS011;3617;48.836;9.172;2022-07-03T10:37:30;0.80;;;0.80;;
7150;SDS011;3617;48.836;9.172;2022-07-03T10:40:09;0.90;;;0.90;;
7150;SDS011;3617;48.836;9.172;2022-07-03T10:42:56;1.80;;;0.68;;
7150;SDS011;3617;48.836;9.172;2022-07-03T10:51:15;1.25;;;1.15;;
7150;SDS011;3617;48.836;9.172;2022-07-03T10:53:41;1.00;;;1.00;;
7150;SDS011;3617;48.836;9.172;2022-07-03T10:56:07;1.05;;;0.98;;
7150;SDS011;3617;48.836;9.172;2022-07-03T10:58:38;0.88;;;0.80;;
7150;SDS011;3617;48.836;9.172;2022-07-03T11:01:31;1.42;;;1.05;;
7150;SDS011;3617;48.836;9.172;2022-07-03T11:04:00;0.88;;;0.88;;
7150;SDS011;3617;48.836;9.172;2022-07-03T11:07:07;0.93;;;0.80;;
7150;SDS011;3617;48.836;9.172;2022-07-03T11:09:18;0.90;;;0.90;;
7150;SDS011;3617;48.836;9.172;2022-07-03T11:11:45;1.67;;;0.80;;
7150;SDS011;3617;48.836;9.172;2022-07-03T11:14:22;0.85;;;0.85;;
7150;SDS011;3617;48.836;9.172;2022-07-03T11:16:48;1.48;;;1.05;;
7150;SDS011;3617;48.836;9.172;2022-07-03T11:19:15;1.00;;;0.90;;
7150;SDS011;3617;48.836;9.172;2022-07-03T11:21:42;1.73;;;1.20;;
7150;SDS011;3617;48.836;9.172;2022-07-03T11:24:20;1.70;;;1.10;;
7150;SDS011;3617;48.836;9.172;2022-07-03T11:29:36;1.45;;;0.90;;
7150;SDS011;3617;48.836;9.172;2022-07-03T11:34:47;1.40;;;1.05;;
7150;SDS011;3617;48.836;9.172;2022-07-03T11:37:19;1.10;;;1.00;;
7150;SDS011;3617;48.836;9.172;2022-07-03T11:39:46;1.88;;;1.10;;
7150;SDS011;3617;48.836;9.172;2022-07-03T11:42:14;1.67;;;0.90;;
7150;SDS011;3617;48.836;9.172;2022-07-03T11:44:40;1.55;;;1.10;;
7150;SDS011;3617;48.836;9.172;2022-07-03T11:47:06;1.08;;;1.00;;
7150;SDS011;3617;48.836;9.172;2022-07-03T11:49:32;1.10;;;1.00;;
7150;SDS011;3617;48.836;9.172;2022-07-03T11:52:00;3.25;;;1.02;;
7150;SDS011;3617;48.836;9.172;2022-07-03T11:54:31;1.20;;;1.10;;
7150;SDS011;3617;48.836;9.172;2022-07-03T11:56:59;1.05;;;0.90;;
7150;SDS011;3617;48.836;9.172;2022-07-03T11:59:25;1.10;;;1.00;;
7150;SDS011;3617;48.836;9.172;2022-07-03T12:01:52;1.50;;;1.13;;
7150;SDS011;3617;48.836;9.172;2022-07-03T12:04:26;2.10;;;1.02;;
7150;SDS011;3617;48.836;9.172;2022-07-03T12:06:56;1.73;;;0.93;;
7150;SDS011;3617;48.836;9.172;2022-07-03T12:09:23;1.65;;;1.08;;
7150;SDS011;3617;48.836;9.172;2022-07-03T12:17:04;1.10;;;1.00;;
7150;SDS011;3617;48.836;9.172;2022-07-03T12:19:30;1.20;;;1.00;;
7150;SDS011;3617;48.836;9.172;2022-07-03T12:21:56;1.45;;;0.85;;
7150;SDS011;3617;48.836;9.172;2022-07-03T12:24:22;1.13;;;1.02;;
7150;SDS011;3617;48.836;9.172;2022-07-03T12:26:49;1.00;;;0.90;;
7150;SDS011;3617;48.836;9.172;2022-07-03T12:29:15;4.13;;;1.35;;
7150;SDS011;3617;48.836;9.172;2022-07-03T12:31:43;2.33;;;0.95;;
7150;SDS011;3617;48.836;9.172;2022-07-03T12:34:10;1.20;;;1.10;;
7150;SDS011;3617;48.836;9.172;2022-07-03T12:36:37;1.17;;;1.02;;
7150;SDS011;3617;48.836;9.172;2022-07-03T12:39:03;0.90;;;0.90;;
7150;SDS011;3617;48.836;9.172;2022-07-03T12:41:29;1.95;;;0.88;;
7150;SDS011;3617;48.836;9.172;2022-07-03T12:43:58;2.95;;;1.58;;
7150;SDS011;3617;48.836;9.172;2022-07-03T12:46:32;2.33;;;1.00;;
7150;SDS011;3617;48.836;9.172;2022-07-03T12:48:59;2.22;;;1.10;;
7150;SDS011;3617;48.836;9.172;2022-07-03T12:54:07;1.13;;;1.02;;
7150;SDS011;3617;48.836;9.172;2022-07-03T12:56:33;2.08;;;1.00;;
7150;SDS011;3617;48.836;9.172;2022-07-03T12:58:59;1.30;;;1.20;;
7150;SDS011;3617;48.836;9.172;2022-07-03T13:01:44;1.15;;;1.00;;
7150;SDS011;3617;48.836;9.172;2022-07-03T13:04:11;1.85;;;1.10;;
7150;SDS011;3617;48.836;9.172;2022-07-03T13:06:42;1.50;;;1.35;;
7150;SDS011;3617;48.836;9.172;2022-07-03T13:09:10;1.25;;;1.10;;
7150;SDS011;3617;48.836;9.172;2022-07-03T13:14:03;1.35;;;1.05;;
7150;SDS011;3617;48.836;9.172;2022-07-03T13:16:34;1.90;;;0.90;;
7150;SDS011;3617;48.836;9.172;2022-07-03T13:19:01;1.40;;;1.30;;
7150;SDS011;3617;48.836;9.172;2022-07-03T13:21:28;2.15;;;0.98;;
7150;SDS011;3617;48.836;9.172;2022-07-03T13:23:55;1.83;;;1.05;;
7150;SDS011;3617;48.836;9.172;2022-07-03T13:26:21;1.25;;;1.15;;
7150;SDS011;3617;48.836;9.172;2022-07-03T13:28:47;1.27;;;1.15;;
7150;SDS011;3617;48.836;9.172;2022-07-03T13:31:13;1.52;;;1.17;;
7150;SDS011;3617;48.836;9.172;2022-07-03T13:33:39;1.95;;;1.15;;
7150;SDS011;3617;48.836;9.172;2022-07-03T13:36:06;1.23;;;1.02;;
7150;SDS011;3617;48.836;9.172;2022-07-03T13:38:32;2.00;;;1.00;;
7150;SDS011;3617;48.836;9.172;2022-07-03T13:40:58;1.52;;;1.00;;
7150;SDS011;3617;48.836;9.172;2022-07-03T13:43:24;1.45;;;1.00;;
7150;SDS011;3617;48.836;9.172;2022-07-03T13:45:50;1.48;;;1.10;;
7150;SDS011;3617;48.836;9.172;2022-07-03T13:48:16;0.98;;;0.98;;
7150;SDS011;3617;48.836;9.172;2022-07-03T13:50:42;3.13;;;1.30;;
7150;SDS011;3617;48.836;9.172;2022-07-03T13:53:08;1.15;;;1.00;;
7150;SDS011;3617;48.836;9.172;2022-07-03T13:55:34;2.70;;;0.95;;
7150;SDS011;3617;48.836;9.172;2022-07-03T13:58:00;3.38;;;1.30;;
7150;SDS011;3617;48.836;9.172;2022-07-03T14:00:29;2.75;;;2.15;;
7150;SDS011;3617;48.836;9.172;2022-07-03T14:02:55;1.80;;;1.40;;
7150;SDS011;3617;48.836;9.172;2022-07-03T14:05:21;1.10;;;1.00;;
7150;SDS011;3617;48.836;9.172;2022-07-03T14:07:47;2.10;;;1.00;;
7150;SDS011;3617;48.836;9.172;2022-07-03T14:10:14;3.28;;;1.27;;
7150;SDS011;3617;48.836;9.172;2022-07-03T14:12:40;3.25;;;1.17;;
7150;SDS011;3617;48.836;9.172;2022-07-03T14:15:06;1.30;;;1.20;;
7150;SDS011;3617;48.836;9.172;2022-07-03T14:17:32;1.20;;;1.10;;
7150;SDS011;3617;48.836;9.172;2022-07-03T14:19:58;1.45;;;1.10;;
7150;SDS011;3617;48.836;9.172;2022-07-03T14:22:24;1.52;;;1.10;;
7150;SDS011;3617;48.836;9.172;2022-07-03T14:24:51;1.33;;;1.20;;
7150;SDS011;3617;48.836;9.172;2022-07-03T14:27:17;1.27;;;1.15;;
7150;SDS011;3617;48.836;9.172;2022-07-03T14:30:03;1.33;;;1.20;;
7150;SDS011;3617;48.836;9.172;2022-07-03T14:32:48;2.28;;;1.30;;
7150;SDS011;3617;48.836;9.172;2022-07-03T14:35:14;2.28;;;1.20;;
7150;SDS011;3617;48.836;9.172;2022-07-03T14:37:40;1.50;;;1.40;;
7150;SDS011;3617;48.836;9.172;2022-07-03T14:40:06;1.23;;;1.10;;
7150;SDS011;3617;48.836;9.172;2022-07-03T14:42:32;1.13;;;1.02;;
7150;SDS011;3617;48.836;9.172;2022-07-03T14:44:58;1.10;;;1.00;;
7150;SDS011;3617;48.836;9.172;2022-07-03T14:47:24;1.05;;;0.95;;
7150;SDS011;3617;48.836;9.172;2022-07-03T14:49:50;1.10;;;0.90;;
7150;SDS011;3617;48.836;9.172;2022-07-03T14:52:17;1.65;;;1.00;;
7150;SDS011;3617;48.836;9.172;2022-07-03T14:54:43;1.20;;;0.98;;
7150;SDS011;3617;48.836;9.172;2022-07-03T14:57:17;1.20;;;1.10;;
7150;SDS011;3617;48.836;9.172;2022-07-03T14:59:51;4.20;;;1.10;;
7150;SDS011;3617;48.836;9.172;2022-07-03T15:02:21;3.53;;;1.20;;
7150;SDS011;3617;48.836;9.172;2022-07-03T15:04:55;0.98;;;0.90;;
7150;SDS011;3617;48.836;9.172;2022-07-03T15:07:24;0.98;;;0.88;;
7150;SDS011;3617;48.836;9.172;2022-07-03T15:10:09;1.75;;;1.20;;
7150;SDS011;3617;48.836;9.172;2022-07-03T15:12:36;1.10;;;0.93;;
7150;SDS011;3617;48.836;9.172;2022-07-03T15:15:03;2.45;;;1.00;;
7150;SDS011;3617;48.836;9.172;2022-07-03T15:17:29;1.38;;;1.20;;
7150;SDS011;3617;48.836;9.172;2022-07-03T15:19:56;1.70;;;1.20;;
7150;SDS011;3617;48.836;9.172;2022-07-03T15:22:24;1.33;;;1.10;;
7150;SDS011;3617;48.836;9.172;2022-07-03T15:24:51;2.03;;;1.00;;
7150;SDS011;3617;48.836;9.172;2022-07-03T15:27:18;1.00;;;0.90;;
7150;SDS011;3617;48.836;9.172;2022-07-03T15:29:45;1.17;;;1.00;;
7150;SDS011;3617;48.836;9.172;2022-07-03T15:32:11;1.00;;;0.93;;
7150;SDS011;3617;48.836;9.172;2022-07-03T15:34:38;1.77;;;1.00;;
7150;SDS011;3617;48.836;9.172;2022-07-03T15:39:32;1.48;;;1.00;;
7150;SDS011;3617;48.836;9.172;2022-07-03T15:44:38;1.23;;;1.13;;
7150;SDS011;3617;48.836;9.172;2022-07-03T15:49:53;1.02;;;0.82;;
7150;SDS011;3617;48.836;9.172;2022-07-03T15:52:23;1.20;;;1.10;;
7150;SDS011;3617;48.836;9.172;2022-07-03T15:58:01;1.83;;;0.90;;
7150;SDS011;3617;48.836;9.172;2022-07-03T16:02:48;2.55;;;0.93;;
7150;SDS011;3617;48.836;9.172;2022-07-03T16:05:17;1.00;;;0.70;;
7150;SDS011;3617;48.836;9.172;2022-07-03T16:07:44;1.08;;;0.90;;
7150;SDS011;3617;48.836;9.172;2022-07-03T16:10:11;1.13;;;0.98;;
7150;SDS011;3617;48.836;9.172;2022-07-03T16:12:37;1.98;;;1.10;;
7150;SDS011;3617;48.836;9.172;2022-07-03T16:15:08;2.45;;;0.93;;
7150;SDS011;3617;48.836;9.172;2022-07-03T16:17:34;1.45;;;1.10;;
7150;SDS011;3617;48.836;9.172;2022-07-03T16:20:01;1.88;;;1.10;;
7150;SDS011;3617;48.836;9.172;2022-07-03T16:22:28;1.00;;;0.90;;
7150;SDS011;3617;48.836;9.172;2022-07-03T16:24:54;2.30;;;1.17;;
7150;SDS011;3617;48.836;9.172;2022-07-03T16:27:22;2.92;;;1.10;;
7150;SDS011;3617;48.836;9.172;2022-07-03T16:29:49;1.20;;;1.10;;
7150;SDS011;3617;48.836;9.172;2022-07-03T16:32:18;1.60;;;0.95;;